createdAt,value
2018-03-28T00:00:55.826Z,11.93
2018-03-28T00:01:58.313Z,13.88
2018-03-28T00:03:00.802Z,13.50
2018-03-28T00:04:04.088Z,13.73
2018-03-28T00:05:07.346Z,12.50
2018-03-28T00:06:09.844Z,12.60
2018-03-28T00:07:13.111Z,13.75
2018-03-28T00:08:15.635Z,11.70
2018-03-28T00:09:18.136Z,13.02
2018-03-28T00:10:20.668Z,13.40
2018-03-28T00:11:23.162Z,12.90
2018-03-28T00:12:25.653Z,13.85
2018-03-28T00:13:28.172Z,14.27
2018-03-28T00:14:31.438Z,12.93
2018-03-28T00:15:33.933Z,13.23
2018-03-28T00:16:37.200Z,13.50
2018-03-28T00:17:39.693Z,13.62
2018-03-28T00:18:42.945Z,13.25
2018-03-28T00:19:45.447Z,14.57
2018-03-28T00:20:48.693Z,14.43
2018-03-28T00:21:51.236Z,13.27
2018-03-28T00:22:54.478Z,13.43
2018-03-28T00:23:57.739Z,13.20
2018-03-28T00:25:00.246Z,13.62
2018-03-28T00:26:03.502Z,13.10
2018-03-28T00:27:06.004Z,14.07
2018-03-28T00:28:09.257Z,13.25
2018-03-28T00:29:11.752Z,13.30
2018-03-28T00:30:15.025Z,14.65
2018-03-28T00:31:17.519Z,14.52
2018-03-28T00:32:20.772Z,14.07
2018-03-28T00:33:23.266Z,13.82
2018-03-28T00:34:25.750Z,16.12
2018-03-28T00:35:29.055Z,16.52
2018-03-28T00:36:31.545Z,13.55
2018-03-28T00:37:34.058Z,13.57
2018-03-28T00:38:36.549Z,15.50
2018-03-28T00:39:39.823Z,15.95
2018-03-28T00:40:44.024Z,15.40
2018-03-28T00:41:46.520Z,14.52
2018-03-28T00:42:49.763Z,15.60
2018-03-28T00:43:52.255Z,15.60
2018-03-28T00:44:54.750Z,15.35
2018-03-28T00:45:57.274Z,16.45
2018-03-28T00:46:59.766Z,15.88
2018-03-28T00:48:02.264Z,15.85
2018-03-28T00:49:05.519Z,15.32
2018-03-28T00:50:07.997Z,15.90
2018-03-28T00:51:22.311Z,17.05
2018-03-28T00:52:24.805Z,16.65
2018-03-28T00:53:27.305Z,17.58
2018-03-28T00:54:31.449Z,16.75
2018-03-28T00:55:33.948Z,18.35
2018-03-28T00:56:36.443Z,16.77
2018-03-28T00:57:39.691Z,16.80
2018-03-28T00:58:42.181Z,16.15
2018-03-28T00:59:44.673Z,16.52
2018-03-28T01:00:48.269Z,15.40
2018-03-28T01:01:51.519Z,17.55
2018-03-28T01:02:54.000Z,15.98
2018-03-28T01:03:56.505Z,17.35
2018-03-28T01:05:00.929Z,16.75
2018-03-28T01:06:03.456Z,17.80
2018-03-28T01:07:05.953Z,17.80
2018-03-28T01:08:09.218Z,19.50
2018-03-28T01:09:11.707Z,17.58
2018-03-28T01:10:14.971Z,16.98
2018-03-28T01:11:17.481Z,16.50
2018-03-28T01:12:19.960Z,17.42
2018-03-28T01:13:22.466Z,16.42
2018-03-28T01:14:24.954Z,17.85
2018-03-28T01:15:27.445Z,18.30
2018-03-28T01:16:30.732Z,17.27
2018-03-28T01:17:33.986Z,16.62
2018-03-28T01:18:36.513Z,17.65
2018-03-28T01:19:39.020Z,16.15
2018-03-28T01:20:41.526Z,18.27
2018-03-28T01:21:44.028Z,16.62
2018-03-28T01:22:46.523Z,17.95
2018-03-28T01:23:49.009Z,18.15
2018-03-28T01:24:51.511Z,18.15
2018-03-28T01:25:55.594Z,18.65
2018-03-28T01:26:58.105Z,18.80
2018-03-28T01:28:01.425Z,17.12
2018-03-28T01:29:03.910Z,17.62
2018-03-28T01:30:06.406Z,18.02
2018-03-28T01:31:08.905Z,18.45
2018-03-28T01:32:11.424Z,17.62
2018-03-28T01:33:14.731Z,18.92
2018-03-28T01:34:17.212Z,15.88
2018-03-28T01:35:20.476Z,17.75
2018-03-28T01:36:22.980Z,19.45
2018-03-28T01:37:26.289Z,18.30
2018-03-28T01:38:28.787Z,18.37
2018-03-28T01:39:31.271Z,18.02
2018-03-28T01:40:33.774Z,18.12
2018-03-28T01:41:37.030Z,19.02
2018-03-28T01:42:39.544Z,18.02
2018-03-28T01:43:42.051Z,19.27
2018-03-28T01:44:44.541Z,20.27
2018-03-28T01:45:47.029Z,18.95
2018-03-28T01:46:49.516Z,19.83
2018-03-28T01:47:53.425Z,19.00
2018-03-28T01:48:56.679Z,18.73
2018-03-28T01:49:59.193Z,17.87
2018-03-28T01:51:01.694Z,20.00
2018-03-28T01:52:04.185Z,19.25
2018-03-28T01:53:06.691Z,20.85
2018-03-28T01:54:09.947Z,19.75
2018-03-28T01:55:12.431Z,20.52
2018-03-28T01:56:16.419Z,19.98
2018-03-28T01:57:18.908Z,20.65
2018-03-28T01:58:22.177Z,20.95
2018-03-28T01:59:26.181Z,20.98
2018-03-28T02:00:28.667Z,20.65
2018-03-28T02:01:31.945Z,20.67
2018-03-28T02:02:34.459Z,21.48
2018-03-28T02:03:36.970Z,20.58
2018-03-28T02:04:39.474Z,22.65
2018-03-28T02:05:42.741Z,22.33
2018-03-28T02:06:45.235Z,22.58
2018-03-28T02:07:48.486Z,21.45
2018-03-28T02:08:50.989Z,21.08
2018-03-28T02:09:54.240Z,21.73
2018-03-28T02:10:56.719Z,21.02
2018-03-28T02:11:59.240Z,20.50
2018-03-28T02:13:01.731Z,22.37
2018-03-28T02:14:04.237Z,20.85
2018-03-28T02:15:06.723Z,21.62
2018-03-28T02:16:09.983Z,21.77
2018-03-28T02:17:12.485Z,22.67
2018-03-28T02:18:15.758Z,21.65
2018-03-28T02:19:18.263Z,20.73
2018-03-28T02:20:20.762Z,21.80
2018-03-28T02:21:23.265Z,21.73
2018-03-28T02:22:25.781Z,20.42
2018-03-28T02:23:28.274Z,21.30
2018-03-28T02:24:30.801Z,21.25
2018-03-28T02:25:34.108Z,23.10
2018-03-28T02:26:36.627Z,21.70
2018-03-28T02:27:39.127Z,23.05
2018-03-28T02:28:42.400Z,22.50
2018-03-28T02:29:44.909Z,20.50
2018-03-28T02:30:47.411Z,20.73
2018-03-28T02:31:49.908Z,22.80
2018-03-28T02:32:52.389Z,20.40
2018-03-28T02:33:55.657Z,20.83
2018-03-28T02:34:58.161Z,21.37
2018-03-28T02:36:02.363Z,21.35
2018-03-28T02:37:05.672Z,21.37
2018-03-28T02:38:08.170Z,20.92
2018-03-28T02:39:10.672Z,21.85
2018-03-28T02:40:13.163Z,23.08
2018-03-28T02:41:16.439Z,23.10
2018-03-28T02:42:18.948Z,21.77
2018-03-28T02:43:21.448Z,22.15
2018-03-28T02:44:24.867Z,21.62
2018-03-28T02:45:28.889Z,22.02
2018-03-28T02:46:32.161Z,23.25
2018-03-28T02:47:34.667Z,21.67
2018-03-28T02:48:37.168Z,22.67
2018-03-28T02:49:39.650Z,20.95
2018-03-28T02:50:42.146Z,21.10
2018-03-28T02:51:44.636Z,22.60
2018-03-28T02:52:47.894Z,23.30
2018-03-28T02:53:50.384Z,22.65
2018-03-28T02:54:53.656Z,21.20
2018-03-28T02:55:56.159Z,20.95
2018-03-28T02:56:58.657Z,21.60
2018-03-28T02:58:01.174Z,22.08
2018-03-28T02:59:04.428Z,21.02
2018-03-28T03:00:06.928Z,21.15
2018-03-28T03:01:09.432Z,22.65
2018-03-28T03:02:11.938Z,22.02
2018-03-28T03:03:14.422Z,21.75
2018-03-28T03:04:18.430Z,22.30
2018-03-28T03:05:20.908Z,23.67
2018-03-28T03:06:23.414Z,21.20
2018-03-28T03:07:25.933Z,24.27
2018-03-28T03:08:29.224Z,21.55
2018-03-28T03:09:31.711Z,23.30
2018-03-28T03:10:34.200Z,21.77
2018-03-28T03:11:37.510Z,22.33
2018-03-28T03:12:40.006Z,21.52
2018-03-28T03:13:42.505Z,22.65
2018-03-28T03:14:45.768Z,23.62
2018-03-28T03:15:48.259Z,23.45
2018-03-28T03:16:50.748Z,23.10
2018-03-28T03:17:54.006Z,25.10
2018-03-28T03:18:56.489Z,22.92
2018-03-28T03:19:58.986Z,22.95
2018-03-28T03:21:02.345Z,24.30
2018-03-28T03:22:04.829Z,24.12
2018-03-28T03:23:08.113Z,23.67
2018-03-28T03:24:11.384Z,24.92
2018-03-28T03:25:13.865Z,27.30
2018-03-28T03:26:16.384Z,25.40
2018-03-28T03:27:18.880Z,24.20
2018-03-28T03:28:21.361Z,23.65
2018-03-28T03:29:23.843Z,24.90
2018-03-28T03:30:26.337Z,25.62
2018-03-28T03:31:29.613Z,24.15
2018-03-28T03:32:32.876Z,25.15
2018-03-28T03:33:35.379Z,26.95
2018-03-28T03:34:37.885Z,26.58
2018-03-28T03:35:40.378Z,26.77
2018-03-28T03:36:42.885Z,27.05
2018-03-28T03:37:46.152Z,23.73
2018-03-28T03:38:48.634Z,25.08
2018-03-28T03:39:51.910Z,25.92
2018-03-28T03:40:54.401Z,27.65
2018-03-28T03:41:57.690Z,26.62
2018-03-28T03:43:00.951Z,27.55
2018-03-28T03:44:03.448Z,28.50
2018-03-28T03:45:06.707Z,28.73
2018-03-28T03:46:09.191Z,25.85
2018-03-28T03:47:11.692Z,27.35
2018-03-28T03:48:14.195Z,26.85
2018-03-28T03:49:16.695Z,27.73
2018-03-28T03:50:19.209Z,28.85
2018-03-28T03:51:21.702Z,30.37
2018-03-28T03:52:24.212Z,27.83
2018-03-28T03:53:27.536Z,27.25
2018-03-28T03:54:30.035Z,28.20
2018-03-28T03:55:32.528Z,29.20
2018-03-28T03:56:35.020Z,29.40
2018-03-28T03:57:38.281Z,28.45
2018-03-28T03:58:40.780Z,28.30
2018-03-28T03:59:44.040Z,28.75
2018-03-28T04:00:46.519Z,27.75
2018-03-28T04:01:49.022Z,31.30
2018-03-28T04:02:52.286Z,30.80
2018-03-28T04:03:54.774Z,29.63
2018-03-28T04:04:58.035Z,32.92
2018-03-28T04:06:01.350Z,29.55
2018-03-28T04:07:04.615Z,31.77
2018-03-28T04:08:07.126Z,30.77
2018-03-28T04:09:09.625Z,29.15
2018-03-28T04:10:12.111Z,30.08
2018-03-28T04:11:14.591Z,30.65
2018-03-28T04:12:17.081Z,33.33
2018-03-28T04:13:20.363Z,32.25
2018-03-28T04:14:23.614Z,33.97
2018-03-28T04:15:26.104Z,33.60
2018-03-28T04:16:28.594Z,37.22
2018-03-28T04:17:31.841Z,32.45
2018-03-28T04:18:35.127Z,32.63
2018-03-28T04:19:37.610Z,34.25
2018-03-28T04:20:40.102Z,34.85
2018-03-28T04:21:42.609Z,32.03
2018-03-28T04:22:45.092Z,33.20
2018-03-28T04:23:47.592Z,33.63
2018-03-28T04:24:50.079Z,35.28
2018-03-28T04:25:52.575Z,36.58
2018-03-28T04:26:55.842Z,36.33
2018-03-28T04:27:59.103Z,34.42
2018-03-28T04:29:01.620Z,36.00
2018-03-28T04:30:04.886Z,32.40
2018-03-28T04:31:08.522Z,33.13
2018-03-28T04:32:11.017Z,33.97
2018-03-28T04:33:13.519Z,34.97
2018-03-28T04:34:16.020Z,33.35
2018-03-28T04:35:19.320Z,35.35
2018-03-28T04:36:21.825Z,37.22
2018-03-28T04:37:24.307Z,33.80
2018-03-28T04:38:26.810Z,36.80
2018-03-28T04:39:30.298Z,33.80
2018-03-28T04:40:33.610Z,34.88
2018-03-28T04:41:37.004Z,34.53
2018-03-28T04:42:39.496Z,34.45
2018-03-28T04:43:42.035Z,35.20
2018-03-28T04:44:45.293Z,34.20
2018-03-28T04:45:47.902Z,35.95
2018-03-28T04:46:50.408Z,36.08
2018-03-28T04:47:52.898Z,34.35
2018-03-28T04:48:55.380Z,34.15
2018-03-28T04:49:58.651Z,35.72
2018-03-28T04:51:01.184Z,35.75
2018-03-28T04:52:03.679Z,34.60
2018-03-28T04:53:06.193Z,34.65
2018-03-28T04:54:09.447Z,35.25
2018-03-28T04:55:12.723Z,37.00
2018-03-28T04:56:15.251Z,35.13
2018-03-28T04:57:17.758Z,34.15
2018-03-28T04:58:20.280Z,38.28
2018-03-28T04:59:23.536Z,37.83
2018-03-28T05:00:26.041Z,37.00
2018-03-28T05:01:29.303Z,35.25
2018-03-28T05:02:31.805Z,36.92
2018-03-28T05:03:34.305Z,36.08
2018-03-28T05:04:36.818Z,35.17
2018-03-28T05:05:41.662Z,35.47
2018-03-28T05:06:44.947Z,36.40
2018-03-28T05:07:48.223Z,37.58
2018-03-28T05:08:50.715Z,34.83
2018-03-28T05:09:53.970Z,37.55
2018-03-28T05:10:57.230Z,36.95
2018-03-28T05:11:59.731Z,36.30
2018-03-28T05:13:02.226Z,36.25
2018-03-28T05:14:05.504Z,36.75
2018-03-28T05:15:08.758Z,34.88
2018-03-28T05:16:11.273Z,37.50
2018-03-28T05:17:15.065Z,35.85
2018-03-28T05:18:18.344Z,38.38
2018-03-28T05:19:20.839Z,36.85
2018-03-28T05:20:24.090Z,36.47
2018-03-28T05:21:26.579Z,36.42
2018-03-28T05:22:29.951Z,34.72
2018-03-28T05:23:32.410Z,37.83
2018-03-28T05:24:34.907Z,35.38
2018-03-28T05:25:38.202Z,36.58
2018-03-28T05:26:41.474Z,35.58
2018-03-28T05:27:44.753Z,36.25
2018-03-28T05:28:47.246Z,35.67
2018-03-28T05:29:50.502Z,34.78
2018-03-28T05:30:52.990Z,35.70
2018-03-28T05:31:55.488Z,36.28
2018-03-28T05:32:58.003Z,34.63
2018-03-28T05:34:00.520Z,37.40
2018-03-28T05:35:04.008Z,35.50
2018-03-28T05:36:07.273Z,36.75
2018-03-28T05:37:09.778Z,38.55
2018-03-28T05:38:13.039Z,37.28
2018-03-28T05:39:17.041Z,37.85
2018-03-28T05:40:19.528Z,37.47
2018-03-28T05:41:22.777Z,38.38
2018-03-28T05:42:25.274Z,36.15
2018-03-28T05:43:28.536Z,37.88
2018-03-28T05:44:31.022Z,39.03
2018-03-28T05:45:33.518Z,37.75
2018-03-28T05:46:36.796Z,38.40
2018-03-28T05:47:39.296Z,40.55
2018-03-28T05:48:41.786Z,37.40
2018-03-28T05:49:44.331Z,40.92
2018-03-28T05:50:46.788Z,38.47
2018-03-28T05:51:50.053Z,41.30
2018-03-28T05:52:54.066Z,39.65
2018-03-28T05:53:56.570Z,39.03
2018-03-28T05:54:59.084Z,37.72
2018-03-28T05:56:01.585Z,39.45
2018-03-28T05:57:04.840Z,38.15
2018-03-28T05:58:07.361Z,35.33
2018-03-28T05:59:09.957Z,39.40
2018-03-28T06:00:12.458Z,37.80
2018-03-28T06:01:14.952Z,37.22
2018-03-28T06:02:17.454Z,37.33
2018-03-28T06:03:19.979Z,40.53
2018-03-28T06:04:23.246Z,39.88
2018-03-28T06:05:25.761Z,36.28
2018-03-28T06:06:29.014Z,38.22
2018-03-28T06:07:32.376Z,39.22
2018-03-28T06:08:34.886Z,37.95
2018-03-28T06:09:38.142Z,39.38
2018-03-28T06:10:40.674Z,37.33
2018-03-28T06:11:43.923Z,38.90
2018-03-28T06:12:46.412Z,37.35
2018-03-28T06:13:48.923Z,36.92
2018-03-28T06:14:51.422Z,36.55
2018-03-28T06:15:53.905Z,35.20
2018-03-28T06:16:56.395Z,39.03
2018-03-28T06:17:59.647Z,36.72
2018-03-28T06:19:02.160Z,35.42
2018-03-28T06:20:05.436Z,38.58
2018-03-28T06:21:07.929Z,37.53
2018-03-28T06:22:10.433Z,36.22
2018-03-28T06:23:12.924Z,36.92
2018-03-28T06:24:15.414Z,37.20
2018-03-28T06:25:18.686Z,36.13
2018-03-28T06:26:21.192Z,35.80
2018-03-28T06:27:24.457Z,36.13
2018-03-28T06:28:27.730Z,34.05
2018-03-28T06:29:31.044Z,36.15
2018-03-28T06:30:35.373Z,35.45
2018-03-28T06:31:38.775Z,36.33
2018-03-28T06:32:41.330Z,36.15
2018-03-28T06:33:44.585Z,36.90
2018-03-28T06:34:47.115Z,35.05
2018-03-28T06:35:49.593Z,35.95
2018-03-28T06:36:52.084Z,35.90
2018-03-28T06:37:54.587Z,37.55
2018-03-28T06:38:57.850Z,35.13
2018-03-28T06:40:00.338Z,39.33
2018-03-28T06:41:04.542Z,37.83
2018-03-28T06:42:07.059Z,36.15
2018-03-28T06:43:09.704Z,37.97
2018-03-28T06:44:12.998Z,36.90
2018-03-28T06:45:16.279Z,37.33
2018-03-28T06:46:19.558Z,39.05
2018-03-28T06:47:22.116Z,34.53
2018-03-28T06:48:24.590Z,35.25
2018-03-28T06:49:27.114Z,36.10
2018-03-28T06:50:29.609Z,35.30
2018-03-28T06:51:32.111Z,34.85
2018-03-28T06:52:34.615Z,37.13
2018-03-28T06:53:37.130Z,35.92
2018-03-28T06:54:39.632Z,37.75
2018-03-28T06:55:42.901Z,36.53
2018-03-28T06:56:46.195Z,36.40
2018-03-28T06:57:48.688Z,36.80
2018-03-28T06:58:51.182Z,35.28
2018-03-28T06:59:53.679Z,37.72
2018-03-28T07:00:56.195Z,37.83
2018-03-28T07:01:59.441Z,35.15
2018-03-28T07:03:01.933Z,35.33
2018-03-28T07:04:04.449Z,35.58
2018-03-28T07:05:06.947Z,35.35
2018-03-28T07:06:09.475Z,36.47
2018-03-28T07:07:11.975Z,36.30
2018-03-28T07:08:14.481Z,35.25
2018-03-28T07:09:16.990Z,35.85
2018-03-28T07:10:19.511Z,36.45
2018-03-28T07:11:22.055Z,34.50
2018-03-28T07:12:24.546Z,35.30
2018-03-28T07:13:27.044Z,34.72
2018-03-28T07:14:30.316Z,34.60
2018-03-28T07:15:33.636Z,31.27
2018-03-28T07:16:36.945Z,35.25
2018-03-28T07:17:39.520Z,32.05
2018-03-28T07:18:42.012Z,34.40
2018-03-28T07:19:44.510Z,32.75
2018-03-28T07:20:48.558Z,32.72
2018-03-28T07:21:51.880Z,34.88
2018-03-28T07:22:54.411Z,32.55
2018-03-28T07:23:56.907Z,32.28
2018-03-28T07:24:59.412Z,33.00
2018-03-28T07:26:01.905Z,32.75
2018-03-28T07:27:05.201Z,31.42
2018-03-28T07:28:08.489Z,29.42
2018-03-28T07:29:11.784Z,30.45
2018-03-28T07:30:15.060Z,29.73
2018-03-28T07:31:18.326Z,30.80
2018-03-28T07:32:20.879Z,32.90
2018-03-28T07:33:23.370Z,31.25
2018-03-28T07:34:25.867Z,29.95
2018-03-28T07:35:28.364Z,31.60
2018-03-28T07:36:30.928Z,33.15
2018-03-28T07:37:33.447Z,30.45
2018-03-28T07:38:35.961Z,28.12
2018-03-28T07:39:38.471Z,27.90
2018-03-28T07:40:40.964Z,28.08
2018-03-28T07:41:43.468Z,29.42
2018-03-28T07:42:45.947Z,27.83
2018-03-28T07:43:48.463Z,27.98
2018-03-28T07:57:51.016Z,25.02
2018-03-28T07:58:53.518Z,26.10
2018-03-28T07:59:56.032Z,24.85
2018-03-28T08:00:59.310Z,24.50
2018-03-28T08:02:02.589Z,24.95
2018-03-28T08:03:05.111Z,26.23
2018-03-28T08:04:07.636Z,25.35
2018-03-28T08:05:10.158Z,24.30
2018-03-28T08:06:12.658Z,24.08
2018-03-28T08:07:15.165Z,25.37
2018-03-28T08:08:17.706Z,23.35
2018-03-28T08:09:20.225Z,23.52
2018-03-28T08:10:23.496Z,24.80
2018-03-28T08:11:26.802Z,24.45
2018-03-28T08:12:29.264Z,23.95
2018-03-28T08:13:32.557Z,22.33
2018-03-28T08:14:35.808Z,23.38
2018-03-28T08:15:38.312Z,22.17
2018-03-28T08:16:41.610Z,24.80
2018-03-28T08:17:44.124Z,23.05
2018-03-28T08:18:46.635Z,22.17
2018-03-28T08:19:49.913Z,22.08
2018-03-28T08:20:52.428Z,24.50
2018-03-28T08:21:54.926Z,23.85
2018-03-28T08:22:57.470Z,23.60
2018-03-28T08:23:59.989Z,22.77
2018-03-28T08:25:02.512Z,23.10
2018-03-28T08:26:05.071Z,22.17
2018-03-28T08:27:07.597Z,21.65
2018-03-28T08:28:10.107Z,23.08
2018-03-28T08:29:13.462Z,23.30
2018-03-28T08:30:16.024Z,22.87
2018-03-28T08:31:19.195Z,24.15
2018-03-28T08:32:21.743Z,24.75
2018-03-28T08:33:24.238Z,23.30
2018-03-28T08:34:26.788Z,23.95
2018-03-28T08:35:29.306Z,23.50
2018-03-28T08:36:31.839Z,25.27
2018-03-28T08:37:34.351Z,23.75
2018-03-28T08:38:36.857Z,23.30
2018-03-28T08:39:39.362Z,24.15
2018-03-28T08:40:41.934Z,23.15
2018-03-28T08:41:44.445Z,25.62
2018-03-28T08:42:47.719Z,25.77
2018-03-28T08:43:50.212Z,24.23
2018-03-28T08:44:53.496Z,23.38
2018-03-28T08:45:56.770Z,23.25
2018-03-28T08:46:59.262Z,23.27
2018-03-28T08:48:01.778Z,25.40
2018-03-28T08:49:04.288Z,24.33
2018-03-28T08:50:07.579Z,24.20
2018-03-28T08:51:10.875Z,22.73
2018-03-28T08:52:14.262Z,25.42
2018-03-28T08:53:17.518Z,24.85
2018-03-28T08:54:20.012Z,26.40
2018-03-28T08:55:23.298Z,23.33
2018-03-28T08:56:25.844Z,24.15
2018-03-28T08:57:28.354Z,27.05
2018-03-28T08:58:32.198Z,24.80
2018-03-28T08:59:34.733Z,25.67
2018-03-28T09:00:37.246Z,24.67
2018-03-28T09:01:39.753Z,23.80
2018-03-28T09:02:42.260Z,24.67
2018-03-28T09:03:44.747Z,22.10
2018-03-28T09:04:47.257Z,23.35
2018-03-28T09:05:49.794Z,24.60
2018-03-28T09:06:52.313Z,24.65
2018-03-28T09:07:55.563Z,22.30
2018-03-28T09:08:58.071Z,23.40
2018-03-28T09:10:01.327Z,23.08
2018-03-28T09:11:03.838Z,23.10
2018-03-28T09:12:06.375Z,24.15
2018-03-28T09:13:08.889Z,23.70
2018-03-28T09:14:11.404Z,22.70
2018-03-28T09:15:13.932Z,23.73
2018-03-28T09:16:16.460Z,22.90
2018-03-28T09:17:19.706Z,23.80
2018-03-28T09:18:22.202Z,23.25
2018-03-28T09:19:24.702Z,23.38
2018-03-28T09:20:27.526Z,24.58
2018-03-28T09:21:30.039Z,24.95
2018-03-28T09:22:33.433Z,24.67
2018-03-28T09:23:35.960Z,24.48
2018-03-28T09:24:38.480Z,23.60
2018-03-28T09:25:41.021Z,23.62
2018-03-28T09:26:43.556Z,21.90
2018-03-28T09:27:46.067Z,23.30
2018-03-28T09:28:48.573Z,23.77
2018-03-28T09:29:52.869Z,23.80
2018-03-28T09:30:55.398Z,21.62
2018-03-28T09:31:57.907Z,22.42
2018-03-28T09:33:00.408Z,21.73
2018-03-28T09:34:03.673Z,22.25
2018-03-28T09:35:06.181Z,22.05
2018-03-28T09:36:08.719Z,24.20
2018-03-28T09:37:12.034Z,25.95
2018-03-28T09:38:14.552Z,27.05
2018-03-28T09:39:17.087Z,23.17
2018-03-28T09:40:19.596Z,23.55
2018-03-28T09:41:22.091Z,24.37
2018-03-28T09:42:24.612Z,21.60
2018-03-28T09:43:27.118Z,20.80
2018-03-28T09:44:29.652Z,25.17
2018-03-28T09:45:32.142Z,23.12
2018-03-28T09:46:34.673Z,22.17
2018-03-28T09:47:37.202Z,21.92
2018-03-28T09:48:39.715Z,22.50
2018-03-28T09:49:42.227Z,22.20
2018-03-28T09:50:44.758Z,22.42
2018-03-28T09:51:47.276Z,22.80
2018-03-28T09:52:49.785Z,22.30
2018-03-28T09:53:53.039Z,22.17
2018-03-28T09:54:55.531Z,22.87
2018-03-28T09:55:58.815Z,20.33
2018-03-28T09:57:02.099Z,22.50
2018-03-28T09:58:04.607Z,22.05
2018-03-28T09:59:07.112Z,22.17
2018-03-28T10:00:09.639Z,21.90
2018-03-28T10:01:12.145Z,21.27
2018-03-28T10:02:14.692Z,22.67
2018-03-28T10:03:17.256Z,22.02
2018-03-28T10:04:19.804Z,22.35
2018-03-28T10:05:37.949Z,21.80
2018-03-28T10:06:41.222Z,22.15
2018-03-28T10:07:44.518Z,21.20
2018-03-28T10:08:48.698Z,21.35
2018-03-28T10:09:50.320Z,23.60
2018-03-28T10:10:52.832Z,22.98
2018-03-28T10:11:55.335Z,21.80
2018-03-28T10:12:57.860Z,21.65
2018-03-28T10:14:00.365Z,22.90
2018-03-28T10:15:03.639Z,22.73
2018-03-28T10:16:06.915Z,23.20
2018-03-28T10:17:10.981Z,22.95
2018-03-28T10:18:13.512Z,23.92
2018-03-28T10:19:16.855Z,22.50
2018-03-28T10:20:19.364Z,21.80
2018-03-28T10:21:21.876Z,22.42
2018-03-28T10:22:24.383Z,20.80
2018-03-28T10:23:26.878Z,21.67
2018-03-28T10:24:30.169Z,22.85
2018-03-28T10:25:33.425Z,20.92
2018-03-28T10:26:35.932Z,22.45
2018-03-28T10:27:39.229Z,22.80
2018-03-28T10:28:43.451Z,22.20
2018-03-28T10:29:45.970Z,21.33
2018-03-28T10:30:48.485Z,21.35
2018-03-28T10:31:51.018Z,20.70
2018-03-28T10:32:54.310Z,21.98
2018-03-28T10:33:58.347Z,20.40
2018-03-28T10:35:01.631Z,20.65
2018-03-28T10:36:04.908Z,21.15
2018-03-28T10:37:08.181Z,22.05
2018-03-28T10:38:11.163Z,19.08
2018-03-28T10:39:14.478Z,20.52
2018-03-28T10:40:17.800Z,19.67
2018-03-28T10:41:20.544Z,21.00
2018-03-28T10:42:23.822Z,21.62
2018-03-28T10:43:27.119Z,20.02
2018-03-28T10:44:30.426Z,19.37
2018-03-28T10:45:32.947Z,19.35
2018-03-28T10:46:35.450Z,18.95
2018-03-28T10:47:38.730Z,20.95
2018-03-28T10:48:42.025Z,19.33
2018-03-28T10:49:45.305Z,18.85
2018-03-28T10:50:48.563Z,18.67
2018-03-28T10:51:51.070Z,17.40
2018-03-28T10:52:54.347Z,19.15
2018-03-28T10:53:57.641Z,17.85
2018-03-28T10:55:01.018Z,18.85
2018-03-28T10:56:03.539Z,19.75
2018-03-28T10:57:06.058Z,19.90
2018-03-28T10:58:09.343Z,19.92
2018-03-28T10:59:11.898Z,19.77
2018-03-28T11:00:15.242Z,18.92
2018-03-28T11:01:17.757Z,17.55
2018-03-28T11:02:20.291Z,19.10
2018-03-28T11:03:22.796Z,19.50
2018-03-28T11:04:25.319Z,19.12
2018-03-28T11:05:28.606Z,18.73
2018-03-28T11:06:31.129Z,18.73
2018-03-28T11:07:33.636Z,20.75
2018-03-28T11:08:36.916Z,20.48
2018-03-28T11:09:40.218Z,20.42
2018-03-28T11:10:43.512Z,19.67
2018-03-28T11:11:46.804Z,20.35
2018-03-28T11:12:50.085Z,19.35
2018-03-28T11:13:53.348Z,19.52
2018-03-28T11:14:55.848Z,18.65
2018-03-28T11:15:58.748Z,21.15
2018-03-28T11:17:01.256Z,18.62
2018-03-28T11:18:03.785Z,20.83
2018-03-28T11:19:06.281Z,19.05
2018-03-28T11:21:04.761Z,22.02
2018-03-28T11:22:07.858Z,21.45
2018-03-28T11:23:10.476Z,20.83
2018-03-28T11:24:13.768Z,18.80
2018-03-28T11:25:17.057Z,20.05
2018-03-28T11:26:20.315Z,20.30
2018-03-28T11:27:22.818Z,19.45
2018-03-28T11:28:26.117Z,20.40
2018-03-28T11:29:28.614Z,21.12
2018-03-28T11:30:31.119Z,19.00
2018-03-28T11:31:33.659Z,20.27
2018-03-28T11:32:37.105Z,20.50
2018-03-28T11:33:40.368Z,20.25
2018-03-28T11:34:42.884Z,21.30
2018-03-28T11:35:45.406Z,21.58
2018-03-28T11:36:47.908Z,20.15
2018-03-28T11:37:51.169Z,21.45
2018-03-28T11:38:53.689Z,19.83
2018-03-28T11:39:56.231Z,21.83
2018-03-28T11:40:59.493Z,22.52
2018-03-28T11:42:02.000Z,21.08
2018-03-28T11:43:05.272Z,21.85
2018-03-28T11:44:08.578Z,21.42
2018-03-28T11:45:11.862Z,23.15
2018-03-28T11:46:15.134Z,21.55
2018-03-28T11:47:17.637Z,21.95
2018-03-28T11:48:20.182Z,21.73
2018-03-28T11:49:23.455Z,23.48
2018-03-28T11:50:25.976Z,22.92
2018-03-28T11:51:28.475Z,22.50
2018-03-28T11:52:31.000Z,21.77
2018-03-28T11:53:33.520Z,21.83
2018-03-28T11:54:36.037Z,23.38
2018-03-28T11:55:39.405Z,21.17
2018-03-28T11:56:41.900Z,23.42
2018-03-28T11:57:44.463Z,22.00
2018-03-28T11:58:47.738Z,22.15
2018-03-28T11:59:51.012Z,24.30
2018-03-28T12:00:53.516Z,24.10
2018-03-28T12:01:56.053Z,21.95
2018-03-28T12:02:58.587Z,23.87
2018-03-28T12:04:01.113Z,24.85
2018-03-28T12:05:05.208Z,22.37
2018-03-28T12:06:08.531Z,21.98
2018-03-28T12:07:12.440Z,21.60
2018-03-28T12:08:15.021Z,24.40
2018-03-28T12:09:17.540Z,23.20
2018-03-28T12:10:20.065Z,24.48
2018-03-28T12:11:22.586Z,23.02
2018-03-28T12:12:25.083Z,24.08
2018-03-28T12:13:27.576Z,24.08
2018-03-28T12:14:30.083Z,25.25
2018-03-28T12:15:32.568Z,26.15
2018-03-28T12:16:36.853Z,25.35
2018-03-28T12:17:39.346Z,27.33
2018-03-28T12:18:41.849Z,31.33
2018-03-28T12:19:44.398Z,30.08
2018-03-28T12:20:47.693Z,30.08
2018-03-28T12:21:50.239Z,29.67
2018-03-28T12:22:52.752Z,30.42
2018-03-28T12:23:55.258Z,31.87
2018-03-28T12:24:57.837Z,33.90
2018-03-28T12:26:00.330Z,31.00
2018-03-28T12:27:02.831Z,34.40
2018-03-28T12:28:05.355Z,34.50
2018-03-28T12:29:07.891Z,33.28
2018-03-28T12:30:10.535Z,34.53
2018-03-28T12:31:13.821Z,34.88
2018-03-28T12:32:17.108Z,35.15
2018-03-28T12:33:20.376Z,36.03
2018-03-28T12:34:22.902Z,33.60
2018-03-28T12:35:25.982Z,37.35
2018-03-28T12:36:28.490Z,36.20
2018-03-28T12:37:31.000Z,37.67
2018-03-28T12:38:34.280Z,37.17
2018-03-28T12:39:37.543Z,40.45
2018-03-28T12:40:41.253Z,39.03
2018-03-28T12:41:43.773Z,38.10
2018-03-28T12:42:47.417Z,37.78
2018-03-28T12:43:49.925Z,39.22
2018-03-28T12:44:52.427Z,38.90
2018-03-28T12:45:54.928Z,41.28
2018-03-28T12:46:57.473Z,39.58
2018-03-28T12:47:59.969Z,40.58
2018-03-28T12:49:02.482Z,41.22
2018-03-28T12:50:05.044Z,38.30
2018-03-28T12:51:08.298Z,40.92
2018-03-28T12:52:10.869Z,40.30
2018-03-28T12:53:13.403Z,41.35
2018-03-28T12:54:15.938Z,37.95
2018-03-28T12:55:19.261Z,38.53
2018-03-28T12:56:21.765Z,38.63
2018-03-28T12:57:25.782Z,41.75
2018-03-28T12:58:28.303Z,42.72
2018-03-28T12:59:30.786Z,41.35
2018-03-28T13:00:33.308Z,38.70
2018-03-28T13:01:37.444Z,40.65
2018-03-28T13:02:39.971Z,39.63
2018-03-28T13:03:42.479Z,40.67
2018-03-28T13:04:44.992Z,42.47
2018-03-28T13:05:47.516Z,41.30
2018-03-28T13:06:50.033Z,40.33
2018-03-28T13:07:52.582Z,41.85
2018-03-28T13:08:55.117Z,40.28
2018-03-28T13:09:58.381Z,39.33
2018-03-28T13:11:01.884Z,40.10
2018-03-28T13:12:04.343Z,40.97
2018-03-28T13:13:06.850Z,42.00
2018-03-28T13:14:09.374Z,41.28
2018-03-28T13:15:12.700Z,41.47
2018-03-28T13:16:16.018Z,42.90
2018-03-28T13:17:19.262Z,44.63
2018-03-28T13:18:23.808Z,43.20
2018-03-28T13:19:26.324Z,39.30
2018-03-28T13:20:28.864Z,39.45
2018-03-28T13:21:31.372Z,39.20
2018-03-28T13:22:34.337Z,37.95
2018-03-28T13:23:36.846Z,35.50
2018-03-28T13:24:40.136Z,37.60
2018-03-28T13:25:43.419Z,39.33
2018-03-28T13:26:46.702Z,38.85
2018-03-28T13:27:49.252Z,37.50
2018-03-28T13:28:52.468Z,35.47
2018-03-28T13:29:54.984Z,33.88
2018-03-28T13:30:57.514Z,31.37
2018-03-28T13:32:00.796Z,33.22
2018-03-28T13:33:04.090Z,32.38
2018-03-28T13:34:07.358Z,32.17
2018-03-28T13:35:09.899Z,31.83
2018-03-28T13:36:12.407Z,31.95
2018-03-28T13:37:14.915Z,32.95
2018-03-28T13:38:17.451Z,30.52
2018-03-28T13:39:19.966Z,32.83
2018-03-28T13:40:22.496Z,29.42
2018-03-28T13:41:25.770Z,31.23
2018-03-28T13:42:28.280Z,35.28
2018-03-28T13:43:30.824Z,40.15